Flight Track Log - Related Links

Times and Time Zones

All times are in EDT time to prevent confusion due to time zone crossing. See the N525H flight status page for this flight to view local times or setup timezone preferences in your user account.


Time Position Orientation Groundspeed Altitude Reporting Facility
EDT Latitude Longitude Course Direction KTS MPH feet Rate Location/Type
Mon 09:14:45 AM 43.5722 -110.7558 133° Southeast 150 173 7,600  Level Salt Lake Center
Mon 09:15:46 AM 43.5231 -110.7881 205° Southwest 192 221 10,200 2,607 Climbing Salt Lake Center
Mon 09:16:47 AM 43.4819 -110.8275 215° Southwest 189 217 12,900 2,164 Climbing Salt Lake Center
Mon 09:17:48 AM 43.4367 -110.8158 169° South 215 247 14,600 1,623 Climbing Salt Lake Center
Mon 09:18:49 AM 43.4364 -110.7142 90° East 271 312 16,200 1,525 Climbing Salt Lake Center
Mon 09:19:00 AM 43.0575 -110.7736 133° Southeast  Level FlightAware Approximate
Mon 09:19:50 AM 43.4375 -110.6075 89° East 281 323 17,700  Level Salt Lake Center
Mon 09:20:50 AM 43.4408 -110.4886 88° East 290 334 20,100 1,983 Climbing Salt Lake Center
Mon 09:21:51 AM 43.4422 -110.3797 89° East 297 342 21,700 1,770 Climbing Salt Lake Center
Mon 09:22:52 AM 43.4444 -110.2497 89° East 303 349 23,700 1,721 Climbing Salt Lake Center
Mon 09:23:53 AM 43.4461 -110.1358 89° East 308 354 25,200 1,623 Climbing Salt Lake Center
Mon 09:24:54 AM 43.4475 -110.0028 89° East 310 357 27,000 1,525 Climbing Salt Lake Center
Mon 09:25:55 AM 43.4494 -109.8850 89° East 320 368 28,300 1,328 Climbing Salt Lake Center
Mon 09:26:56 AM 43.4494 -109.7586 90° East 313 360 29,700 1,377 Climbing Salt Lake Center
Mon 09:27:57 AM 43.4503 -109.6314 89° East 328 377 31,100 1,279 Climbing Salt Lake Center
Mon 09:28:58 AM 43.4508 -109.5047 90° East 333 383 32,300 1,180 Climbing Salt Lake Center
Mon 09:29:59 AM 43.4522 -109.3781 89° East 334 384 33,500 1,279 Climbing Salt Lake Center
Mon 09:31:00 AM 43.4531 -109.2536 89° East 329 379 34,900 1,220 Climbing Salt Lake Center
Mon 09:32:02 AM 43.4533 -109.1292 90° East 327 376 36,000 537 Climbing Salt Lake Center
Mon 09:33:03 AM 43.4542 -108.9983 89° East 341 392 36,000  Level Salt Lake Center
Mon 09:34:04 AM 43.4539 -108.8581 90° East 365 420 36,000 689 Level Salt Lake Center
Mon 09:35:05 AM 43.4544 -108.7150 90° East 374 430 37,400 1,328 Climbing Salt Lake Center
Mon 09:36:06 AM 43.4547 -108.5861 90° East 343 395 38,700 1,082 Climbing Salt Lake Center
Mon 09:37:07 AM 43.4553 -108.4311 90° East 339 390 39,600 738 Climbing Salt Lake Center
Mon 09:38:08 AM 43.4539 -108.3011 91° East 341 392 40,200 537 Climbing Salt Lake Center
Mon 09:39:10 AM 43.4542 -108.1703 90° East 344 396 40,700 390 Climbing Salt Lake Center
Mon 09:40:11 AM 43.4525 -108.0369 91° East 349 402 41,000 148 Climbing Salt Lake Center
Mon 09:41:12 AM 43.4511 -107.8994 91° East 358 412 41,000  Level Salt Lake Center
Mon 09:42:13 AM 43.4497 -107.7519 91° East 381 438 41,000  Level Salt Lake Center
Mon 09:43:15 AM 43.4489 -107.6031 90° East 390 449 41,000  Level Salt Lake Center
Mon 09:44:16 AM 43.4478 -107.4478 91° East 406 467 41,000  Level Salt Lake Center
Mon 09:45:17 AM 43.4456 -107.2906 91° East 411 473 41,000  Level Salt Lake Center
Mon 09:46:19 AM 43.4436 -107.0983 91° East 421 484 41,000  Level Salt Lake Center
Mon 09:47:20 AM 43.4406 -106.9358 91° East 425 489 41,000  Level Salt Lake Center
Mon 09:48:21 AM 43.4383 -106.7631 91° East 429 494 41,000  Level Salt Lake Center
Mon 09:49:22 AM 43.4364 -106.6050 91° East 432 497 41,000  Level Salt Lake Center
Mon 09:49:52 AM 43.4350 -106.5261 91° East 430 495 41,000  Level Denver Center
Mon 09:50:53 AM 43.4322 -106.3661 91° East 434 499 41,000  Level Denver Center
Mon 09:51:54 AM 43.4283 -106.1817 92° East 432 497 41,000  Level Denver Center
Mon 09:52:56 AM 43.4250 -106.0228 92° East 434 499 41,000  Level Denver Center
Mon 09:53:57 AM 43.4200 -105.8350 92° East 439 505 41,000  Level Denver Center
Mon 09:54:59 AM 43.4167 -105.6739 92° East 440 506 41,000  Level Denver Center
Mon 09:56:00 AM 43.4122 -105.5144 92° East 438 504 41,000  Level Denver Center
Mon 09:57:02 AM 43.4075 -105.3233 92° East 444 511 41,000  Level Denver Center
Mon 09:58:03 AM 43.4025 -105.1617 92° East 443 510 41,000  Level Denver Center
Mon 09:59:05 AM 43.3964 -104.9742 93° East 441 507 41,000  Level Denver Center
Mon 10:00:06 AM 43.3906 -104.8131 93° East 440 506 41,000  Level Denver Center
Mon 10:01:08 AM 43.3861 -104.6775 93° East 441 507 41,000  Level Denver Center
Mon 10:02:09 AM 43.3797 -104.4969 93° East 443 510 41,000  Level Denver Center
Mon 10:03:11 AM 43.3733 -104.3256 93° East 443 510 41,000  Level Denver Center
Mon 10:04:13 AM 43.3642 -104.1100 93° East 442 509 41,000  Level Denver Center
Mon 10:05:14 AM 43.3575 -103.9489 93° East 442 509 41,000  Level Denver Center
Mon 10:06:16 AM 43.3514 -103.7894 93° East 439 505 41,000  Level Denver Center
Mon 10:07:18 AM 43.3431 -103.5994 93° East 442 509 41,000  Level Denver Center
Mon 10:08:19 AM 43.3342 -103.4403 94° East 439 505 41,000  Level Denver Center
Mon 10:09:21 AM 43.3264 -103.2533 93° East 440 506 41,000  Level Denver Center
Mon 10:10:23 AM 43.3175 -103.0939 94° East 438 504 41,000  Level Denver Center
Mon 10:11:24 AM 43.3103 -102.9333 93° East 441 507 41,000  Level Denver Center
Mon 10:12:26 AM 43.3003 -102.7456 94° East 443 510 41,000  Level Denver Center
Mon 10:13:28 AM 43.2917 -102.5856 94° East 441 507 41,000  Level Denver Center
Mon 10:14:30 AM 43.2814 -102.3975 94° East 443 510 41,000  Level Denver Center
Mon 10:15:32 AM 43.2728 -102.2367 94° East 442 509 41,000  Level Denver Center
Mon 10:16:33 AM 43.2617 -102.0486 95° East 444 511 41,000  Level Denver Center
Mon 10:17:35 AM 43.2528 -101.8861 94° East 445 512 41,000  Level Denver Center
Mon 10:18:37 AM 43.2425 -101.7206 95° East 442 509 41,000  Level Denver Center
Mon 10:19:39 AM 43.2308 -101.5506 95° East 448 516 41,000  Level Denver Center
Mon 10:20:41 AM 43.2192 -101.3508 95° East 443 510 41,000  Level Denver Center
Mon 10:21:43 AM 43.2072 -101.1828 96° East 444 511 41,000  Level Denver Center
Mon 10:22:45 AM 43.1967 -101.0150 95° East 443 510 41,000  Level Denver Center
Mon 10:23:47 AM 43.1856 -100.8483 95° East 442 509 41,000  Level Denver Center
Mon 10:24:49 AM 43.1733 -100.6819 96° East 441 507 41,000  Level Denver Center
Mon 10:25:52 AM 43.1619 -100.5164 95° East 440 506 41,000  Level Denver Center
Mon 10:26:54 AM 43.1478 -100.3147 95° East 442 509 41,000  Level Denver Center
Mon 10:27:56 AM 43.1356 -100.1442 96° East 448 516 41,000  Level Denver Center
Mon 10:28:58 AM 43.1225 -99.9758 96° East 448 516 41,000  Level Denver Center
Mon 10:30:00 AM 43.1092 -99.8050 96° East 451 519 41,000  Level Denver Center
Mon 10:31:02 AM 43.0953 -99.6364 96° East 448 516 41,000  Level Denver Center
Mon 10:32:04 AM 43.0819 -99.4650 96° East 450 518 41,000  Level Denver Center
Mon 10:33:10 AM 43.0656 -99.2631 96° East 451 519 41,000  Level Minneapolis Center
Mon 10:34:12 AM 43.0517 -99.0906 96° East 454 522 41,000  Level Minneapolis Center
Mon 10:35:14 AM 43.0353 -98.9106 97° East 455 524 41,000  Level Minneapolis Center
Mon 10:36:16 AM 43.0203 -98.7381 97° East 459 528 41,000  Level Minneapolis Center
Mon 10:37:18 AM 43.0058 -98.5689 97° East 454 522 41,000  Level Minneapolis Center
Mon 10:38:20 AM 42.9875 -98.3628 97° East 456 525 41,000  Level Minneapolis Center
Mon 10:39:22 AM 42.9722 -98.1911 97° East 457 526 41,000  Level Minneapolis Center
Mon 10:40:25 AM 42.9561 -98.0208 97° East 455 524 41,000  Level Minneapolis Center
Mon 10:41:27 AM 42.9389 -97.8492 98° East 457 526 41,000  Level Minneapolis Center
Mon 10:42:41 AM 42.9233 -97.6794 97° East 454 522 41,000  Level Minneapolis Center
Mon 10:43:43 AM 42.9022 -97.4739 98° East 456 525 41,000  Level Minneapolis Center
Mon 10:44:45 AM 42.8825 -97.2689 97° East 457 526 41,000  Level Minneapolis Center
Mon 10:45:47 AM 42.8681 -97.1311 98° East 459 528 41,000  Level Minneapolis Center
Mon 10:46:49 AM 42.8458 -96.9253 98° East 460 529 41,000  Level Minneapolis Center
Mon 10:47:51 AM 42.8289 -96.7558 98° East 457 526 41,000  Level Minneapolis Center
Mon 10:48:54 AM 42.8114 -96.5850 98° East 457 526 41,000  Level Minneapolis Center
Mon 10:49:56 AM 42.7883 -96.3811 99° East 458 527 41,000  Level Minneapolis Center
Mon 10:50:58 AM 42.7697 -96.2108 98° East 458 527 41,000  Level Minneapolis Center
Mon 10:52:00 AM 42.7514 -96.0389 98° East 461 531 41,000  Level Minneapolis Center
Mon 10:53:02 AM 42.7314 -95.8711 99° East 456 525 41,000  Level Minneapolis Center
Mon 10:54:04 AM 42.7111 -95.6903 99° East 459 528 41,000  Level Minneapolis Center
Mon 10:55:06 AM 42.6906 -95.5153 99° East 465 535 41,000  Level Minneapolis Center
Mon 10:56:08 AM 42.6708 -95.3450 99° East 459 528 41,000  Level Minneapolis Center
Mon 10:57:10 AM 42.6508 -95.1731 99° East 459 528 41,000  Level Minneapolis Center
Mon 10:58:12 AM 42.6253 -94.9672 100° East 461 531 41,000  Level Minneapolis Center
Mon 10:59:14 AM 42.6047 -94.7964 99° East 460 529 41,000  Level Minneapolis Center
Mon 11:00:16 AM 42.5836 -94.6247 99° East 460 529 41,000  Level Minneapolis Center
Mon 11:01:18 AM 42.5611 -94.4517 100° East 466 536 41,000  Level Minneapolis Center
Mon 11:02:20 AM 42.5386 -94.2808 100° East 466 536 41,000  Level Minneapolis Center
Mon 11:03:23 AM 42.5172 -94.1103 100° East 464 534 41,000  Level Minneapolis Center
Mon 11:04:37 AM 42.4850 -93.8714 100° East 466 536 41,000  Level Minneapolis Center
Mon 11:05:39 AM 42.4625 -93.6992 100° East 468 539 41,000  Level Minneapolis Center
Mon 11:06:41 AM 42.4394 -93.5272 100° East 468 539 41,000  Level Minneapolis Center
Mon 11:07:43 AM 42.4161 -93.3553 100° East 470 541 41,000  Level Minneapolis Center
Mon 11:08:45 AM 42.3881 -93.1489 100° East 470 541 41,000  Level Minneapolis Center
Mon 11:09:16 AM 42.3775 -93.0786 101° East 472 543 41,000  Level Chicago Center
Mon 11:09:47 AM 42.3636 -92.9778 101° East 469 540 41,000  Level Minneapolis Center
Mon 11:10:49 AM 42.3397 -92.8078 101° East 467 537 41,000  Level Minneapolis Center
Mon 11:11:51 AM 42.3156 -92.6367 101° East 468 539 41,000  Level Minneapolis Center
Mon 11:12:22 AM 42.3003 -92.5325 101° East 470 541 41,000  Level Chicago Center
Mon 11:13:23 AM 42.2756 -92.3611 101° East 471 542 41,000  Level Chicago Center
Mon 11:14:25 AM 42.2497 -92.1894 101° East 472 543 41,000  Level Chicago Center
Mon 11:15:27 AM 42.2244 -92.0183 101° East 473 544 41,000  Level Chicago Center
Mon 11:16:29 AM 42.1942 -91.8114 101° East 475 547 41,000  Level Chicago Center
Mon 11:17:32 AM 42.1672 -91.6378 102° East 479 551 41,000  Level Chicago Center
Mon 11:18:33 AM 42.1406 -91.4633 102° East 482 555 41,000  Level Chicago Center
Mon 11:19:35 AM 42.1133 -91.2889 102° East 484 557 41,000  Level Chicago Center
Mon 11:20:37 AM 42.0806 -91.0794 102° East 484 557 41,000  Level Chicago Center
Mon 11:21:39 AM 42.0525 -90.9042 102° East 486 559 41,000  Level Chicago Center
Mon 11:22:41 AM 42.0242 -90.7297 102° East 484 557 41,000  Level Chicago Center
Mon 11:23:43 AM 41.9958 -90.5558 102° East 483 556 41,000  Level Chicago Center
Mon 11:24:45 AM 41.9672 -90.3828 102° East 480 552 41,000  Level Chicago Center
Mon 11:25:47 AM 41.9311 -90.1753 103° East 483 556 41,000  Level Chicago Center
Mon 11:26:49 AM 41.9022 -90.0011 103° East 482 555 41,000  Level Chicago Center
Mon 11:27:51 AM 41.8728 -89.8192 102° East 483 556 41,000  Level Chicago Center
Mon 11:28:53 AM 41.8436 -89.6447 103° East 483 556 41,000  Level Chicago Center
Mon 11:29:56 AM 41.8133 -89.4697 103° East 486 559 41,000  Level Chicago Center
Mon 11:30:58 AM 41.7825 -89.2944 103° East 486 559 41,000  Level Chicago Center
Mon 11:32:00 AM 41.7464 -89.0872 103° East 480 552 41,000  Level Chicago Center
Mon 11:33:02 AM 41.7147 -88.9136 104° East 481 554 41,000  Level Chicago Center
Mon 11:34:04 AM 41.6836 -88.7383 103° East 486 559 41,000  Level Chicago Center
Mon 11:35:06 AM 41.6514 -88.5647 104° East 484 557 41,000  Level Chicago Center
Mon 11:36:08 AM 41.6203 -88.3903 103° East 482 555 41,000  Level Chicago Center
Mon 11:37:10 AM 41.5883 -88.2161 104° East 483 556 41,000  Level Chicago Center
Mon 11:38:12 AM 41.5492 -88.0019 104° East 485 558 41,000 -339 Level Chicago Center
Mon 11:39:14 AM 41.5158 -87.8236 104° East 486 559 40,300 -677 Descending Chicago Center
Mon 11:40:16 AM 41.4825 -87.6544 105° East 474 545 39,600 -677 Descending Chicago Center
Mon 11:41:18 AM 41.4500 -87.4858 104° East 471 542 38,900 -677 Descending Chicago Center
Mon 11:42:20 AM 41.4161 -87.3164 105° East 473 544 38,200 -677 Descending Chicago Center
Mon 11:43:22 AM 41.3825 -87.1447 105° East 480 552 37,500 -677 Descending Chicago Center
Mon 11:44:24 AM 41.3483 -86.9744 105° East 480 552 36,800 -774 Descending Chicago Center
Mon 11:45:26 AM 41.3075 -86.7728 105° East 474 545 35,900 -726 Descending Chicago Center
Mon 11:46:28 AM 41.2767 -86.6197 105° East 470 541 35,300 -629 Descending Chicago Center
Mon 11:47:30 AM 41.2439 -86.4567 105° East 463 533 34,600 -726 Descending Chicago Center
Mon 11:48:32 AM 41.2042 -86.2597 105° East 464 534 33,800 -774 Descending Chicago Center
Mon 11:49:34 AM 41.1706 -86.0964 105° East 463 533 33,000 -720 Descending Chicago Center
Mon 11:50:37 AM 41.1361 -85.9333 106° East 463 533 32,300 -672 Descending Chicago Center
Mon 11:51:39 AM 41.0906 -85.7792 111° Southeast 454 522 31,600 -629 Descending Chicago Center
Mon 11:52:41 AM 41.0381 -85.6311 115° Southeast 447 514 31,000 -726 Descending Chicago Center
Mon 11:53:43 AM 40.9753 -85.4575 116° Southeast 441 507 30,100 -1,065 Descending Chicago Center
Mon 11:54:45 AM 40.9219 -85.3133 116° Southeast 439 505 28,800 -1,597 Descending Chicago Center
Mon 11:55:47 AM 40.8694 -85.1658 115° Southeast 445 512 26,800 -1,839 Descending Chicago Center
Mon 11:56:49 AM 40.8314 -85.0192 109° East 436 502 25,000 -1,548 Descending Chicago Center
Mon 11:57:51 AM 40.8472 -84.8706 82° East 415 478 23,600 -1,258 Descending Chicago Center
Mon 11:58:53 AM 40.8267 -84.6939 99° East 413 475 22,400 -1,113 Descending Chicago Center
Mon 11:59:55 AM 40.7844 -84.5556 112° Southeast 410 472 21,300 -677 Descending Chicago Center
Mon 12:00:57 PM 40.7408 -84.4181 113° Southeast 410 472 21,000 -144 Descending Chicago Center
Mon 12:02:00 PM 40.6997 -84.2844 112° Southeast 399 459 21,000  Level Chicago Center
Mon 12:03:02 PM 40.6489 -84.1594 118° Southeast 393 452 21,000 -97 Level Chicago Center
Mon 12:04:04 PM 40.5781 -84.0564 132° Southeast 380 437 20,800 -919 Descending Chicago Center
Mon 12:05:06 PM 40.4925 -83.9275 131° Southeast 389 448 19,100 -1,500 Descending Chicago Center
Mon 12:06:08 PM 40.4242 -83.8261 132° Southeast 377 434 17,700 -1,306 Descending Chicago Center
Mon 12:07:10 PM 40.3578 -83.7267 131° Southeast 367 422 16,400 -1,393 Descending Chicago Center
Mon 12:08:00 PM 40.2986 -83.6411 132° Southeast 355 409 15,100 -1,488 Descending Indianapolis Center
Mon 12:09:19 PM 40.2128 -83.5111 131° Southeast 343 395 13,200 -1,347 Descending Indianapolis Center
Mon 12:10:27 PM 40.1539 -83.4233 131° Southeast 340 391 11,800 -1,359 Descending Indianapolis Center
Mon 12:11:27 PM 40.0839 -83.3253 133° Southeast 328 377 10,300 -1,526 Descending Indianapolis Center
Mon 12:12:21 PM 40.0306 -83.2481 132° Southeast 310 357 8,900 -1,817 Descending Indianapolis Center
Mon 12:13:16 PM 39.9831 -83.1744 130° Southeast 292 336 7,000 -2,017 Descending Indianapolis Center
Mon 12:14:17 PM 39.9297 -83.0975 132° Southeast 278 320 5,000 -1,918 Descending Indianapolis Center
Mon 12:15:18 PM 39.8814 -83.0297 133° Southeast 254 292 3,100 -1,513 Descending Indianapolis Center
Mon 12:16:12 PM 39.8678 -82.9539 103° East 229 264 2,100 -850 Descending Indianapolis Center
Mon 12:17:25 PM 39.8411 -82.9006 123° Southeast 110 127 1,300 -658 Descending Indianapolis Center
Mon 12:19:00 PM 39.8138 -82.9278 131° Southeast  Level Estimated
Mon 12:26:00 PM 39.8138 -82.9278 131° Southeast  Level Estimated

Login

Don't have an account? Register now (free) for customized features, flight alerts, and more!